createdAt,value
2022-10-24T00:00:51.086Z,3.78
2022-10-24T00:03:17.544Z,3.70
2022-10-24T00:05:45.554Z,3.85
2022-10-24T00:08:11.820Z,3.50
2022-10-24T00:10:42.211Z,3.97
2022-10-24T00:13:08.403Z,3.72
2022-10-24T00:15:34.599Z,3.05
2022-10-24T00:18:00.804Z,3.72
2022-10-24T00:20:27.058Z,4.03
2022-10-24T00:22:53.482Z,4.22
2022-10-24T00:25:19.684Z,3.80
2022-10-24T00:27:45.869Z,3.50
2022-10-24T00:30:12.252Z,3.90
2022-10-24T00:32:38.633Z,4.65
2022-10-24T00:35:05.012Z,3.90
2022-10-24T00:37:31.240Z,4.38
2022-10-24T00:39:57.463Z,3.60
2022-10-24T00:42:23.736Z,3.83
2022-10-24T00:44:52.699Z,3.92
2022-10-24T00:47:23.362Z,4.05
2022-10-24T00:50:00.585Z,4.00
2022-10-24T00:52:29.288Z,4.10
2022-10-24T00:54:56.905Z,3.83
2022-10-24T00:57:29.481Z,3.25
2022-10-24T00:59:58.017Z,4.03
2022-10-24T01:02:24.247Z,4.13
2022-10-24T01:04:51.431Z,3.88
2022-10-24T01:07:26.724Z,4.07
2022-10-24T01:10:02.776Z,4.10
2022-10-24T01:12:32.010Z,4.28
2022-10-24T01:15:01.115Z,3.88
2022-10-24T01:17:39.639Z,5.15
2022-10-24T01:20:05.832Z,3.63
2022-10-24T01:22:34.379Z,3.83
2022-10-24T01:25:21.794Z,3.97
2022-10-24T01:27:57.495Z,3.78
2022-10-24T01:30:23.972Z,3.88
2022-10-24T01:33:05.555Z,3.83
2022-10-24T01:35:49.656Z,4.18
2022-10-24T01:38:15.846Z,4.10
2022-10-24T01:40:50.494Z,3.70
2022-10-24T01:43:19.528Z,4.20
2022-10-24T01:45:48.777Z,3.60
2022-10-24T01:48:17.568Z,4.47
2022-10-24T01:50:45.456Z,4.13
2022-10-24T01:53:12.538Z,4.80
2022-10-24T01:55:39.617Z,4.38
2022-10-24T01:58:08.697Z,3.80
2022-10-24T02:00:35.164Z,4.00
2022-10-24T02:03:03.711Z,3.65
2022-10-24T02:05:32.966Z,4.32
2022-10-24T02:08:02.399Z,3.90
2022-10-24T02:10:30.684Z,3.95
2022-10-24T02:13:03.558Z,3.90
2022-10-24T02:15:32.452Z,4.07
2022-10-24T02:17:58.893Z,4.05
2022-10-24T02:20:28.196Z,3.47
2022-10-24T02:23:00.755Z,4.55
2022-10-24T02:25:30.474Z,3.95
2022-10-24T02:28:02.552Z,3.47
2022-10-24T02:30:29.874Z,4.63
2022-10-24T02:32:57.264Z,4.53
2022-10-24T02:35:27.618Z,4.22
2022-10-24T02:37:57.337Z,4.47
2022-10-24T02:40:23.956Z,4.20
2022-10-24T02:42:52.723Z,3.65
2022-10-24T02:45:19.383Z,3.85
2022-10-24T02:47:46.354Z,3.70
2022-10-24T02:50:13.420Z,3.90
2022-10-24T02:52:41.092Z,3.67
2022-10-24T02:55:07.542Z,4.10
2022-10-24T02:57:33.786Z,4.60
2022-10-24T02:59:59.990Z,3.63
2022-10-24T03:02:26.423Z,3.55
2022-10-24T03:04:52.643Z,3.45
2022-10-24T03:07:18.923Z,3.63
2022-10-24T03:09:45.148Z,3.65
2022-10-24T03:12:15.042Z,3.45
2022-10-24T03:14:41.282Z,4.18
2022-10-24T03:17:07.468Z,3.70
2022-10-24T03:19:33.681Z,3.97
2022-10-24T03:21:59.921Z,3.92
2022-10-24T03:24:37.065Z,3.47
2022-10-24T03:27:10.369Z,3.70
2022-10-24T03:29:36.584Z,4.15
2022-10-24T03:32:02.916Z,3.30
2022-10-24T03:34:29.204Z,3.92
2022-10-24T03:36:55.394Z,3.70
2022-10-24T03:39:21.626Z,3.40
2022-10-24T03:41:47.811Z,3.63
2022-10-24T03:44:14.002Z,3.33
2022-10-24T03:46:40.188Z,3.42
2022-10-24T03:49:06.461Z,3.35
2022-10-24T03:51:32.681Z,3.63
2022-10-24T03:53:58.941Z,3.40
2022-10-24T03:56:25.230Z,3.50
2022-10-24T03:58:51.548Z,2.92
2022-10-24T04:01:18.784Z,3.72
2022-10-24T04:03:45.288Z,3.30
2022-10-24T04:06:11.817Z,3.40
2022-10-24T04:08:38.199Z,3.83
2022-10-24T04:11:04.655Z,3.00
2022-10-24T04:13:30.979Z,3.67
2022-10-24T04:15:57.187Z,3.83
2022-10-24T04:18:23.403Z,3.15
2022-10-24T04:20:49.577Z,2.85
2022-10-24T04:23:15.811Z,3.08
2022-10-24T04:25:42.020Z,3.25
2022-10-24T04:28:08.276Z,3.30
2022-10-24T04:30:34.638Z,3.03
2022-10-24T04:33:01.166Z,2.72
2022-10-24T04:35:27.426Z,2.97
2022-10-24T04:37:53.631Z,3.00
2022-10-24T04:40:19.865Z,2.50
2022-10-24T04:42:46.407Z,2.92
2022-10-24T04:45:12.841Z,2.63
2022-10-24T04:47:39.033Z,3.25
2022-10-24T04:50:05.415Z,2.92
2022-10-24T04:52:31.645Z,2.78
2022-10-24T04:54:57.964Z,2.83
2022-10-24T04:57:24.215Z,2.38
2022-10-24T04:59:50.423Z,2.72
2022-10-24T05:02:16.777Z,2.83
2022-10-24T05:04:43.020Z,2.63
2022-10-24T05:07:09.202Z,2.55
2022-10-24T05:09:35.420Z,3.13
2022-10-24T05:12:02.168Z,2.80
2022-10-24T05:14:28.408Z,3.33
2022-10-24T05:16:54.604Z,2.22
2022-10-24T05:19:20.854Z,2.63
2022-10-24T05:21:47.081Z,2.60
2022-10-24T05:24:13.324Z,2.30
2022-10-24T05:26:39.544Z,2.53
2022-10-24T05:31:37.166Z,2.17
2022-10-24T05:34:03.394Z,2.20
2022-10-24T05:36:29.597Z,2.10
2022-10-24T05:38:55.871Z,2.33
2022-10-24T05:41:22.051Z,2.83
2022-10-24T05:43:48.238Z,2.22
2022-10-24T05:46:14.474Z,2.42
2022-10-24T05:48:40.677Z,2.58
2022-10-24T05:51:06.879Z,2.30
2022-10-24T05:53:33.093Z,2.25
2022-10-24T05:55:59.315Z,2.50
2022-10-24T05:58:25.555Z,2.28
2022-10-24T06:00:54.089Z,2.42
2022-10-24T06:03:20.541Z,2.20
2022-10-24T06:05:46.736Z,2.50
2022-10-24T06:08:12.969Z,2.50
2022-10-24T06:10:39.151Z,2.55
2022-10-24T06:13:05.392Z,2.28
2022-10-24T06:15:32.665Z,2.85
2022-10-24T06:17:58.991Z,2.30
2022-10-24T06:20:25.214Z,2.80
2022-10-24T06:22:51.618Z,2.30
2022-10-24T06:25:17.929Z,2.00
2022-10-24T06:27:44.188Z,2.47
2022-10-24T06:30:11.737Z,2.47
2022-10-24T06:32:39.667Z,2.25
2022-10-24T06:35:09.029Z,2.47
2022-10-24T06:37:36.406Z,2.63
2022-10-24T06:40:02.829Z,2.33
2022-10-24T06:42:29.044Z,2.22
2022-10-24T06:44:55.277Z,1.95
2022-10-24T06:47:21.544Z,2.10
2022-10-24T06:49:47.769Z,1.73
2022-10-24T06:52:13.983Z,2.30
2022-10-24T06:54:41.049Z,2.78
2022-10-24T06:57:07.506Z,2.40
2022-10-24T06:59:33.792Z,3.25
2022-10-24T07:02:03.253Z,2.35
2022-10-24T07:04:32.181Z,2.00
2022-10-24T07:06:58.376Z,2.10
2022-10-24T07:09:24.636Z,2.15
2022-10-24T07:11:50.862Z,2.38
2022-10-24T07:14:17.061Z,2.15
2022-10-24T07:16:43.295Z,1.83
2022-10-24T07:19:10.048Z,1.98
2022-10-24T07:21:36.243Z,2.20
2022-10-24T07:24:02.675Z,2.22
2022-10-24T07:26:29.483Z,2.30
2022-10-24T07:28:58.319Z,2.22
2022-10-24T07:31:25.759Z,2.00
2022-10-24T07:33:52.823Z,1.73
2022-10-24T07:36:20.203Z,1.83
2022-10-24T07:38:46.791Z,1.73
2022-10-24T07:41:13.174Z,1.83
2022-10-24T07:43:39.419Z,1.70
2022-10-24T07:46:06.586Z,1.70
2022-10-24T07:48:32.985Z,1.75
2022-10-24T07:50:59.234Z,2.00
2022-10-24T07:53:27.289Z,2.00
2022-10-24T07:55:54.612Z,1.92
2022-10-24T07:58:20.836Z,1.67
2022-10-24T08:00:47.309Z,2.03
2022-10-24T08:03:13.752Z,1.42
2022-10-24T08:05:40.587Z,1.60
2022-10-24T08:10:53.384Z,1.33
2022-10-24T08:13:19.669Z,1.70
2022-10-24T08:15:45.874Z,1.70
2022-10-24T08:18:12.115Z,1.58
2022-10-24T08:20:38.323Z,1.60
2022-10-24T08:23:04.538Z,1.70
2022-10-24T08:25:30.718Z,1.50
2022-10-24T08:27:56.918Z,1.70
2022-10-24T08:30:24.496Z,1.63
2022-10-24T08:32:50.815Z,1.60
2022-10-24T08:35:18.339Z,1.48
2022-10-24T08:37:44.540Z,1.70
2022-10-24T08:40:15.437Z,1.23
2022-10-24T08:42:42.184Z,1.33
2022-10-24T08:45:22.634Z,1.40
2022-10-24T08:47:57.633Z,1.50
2022-10-24T08:50:26.175Z,1.10
2022-10-24T08:52:55.270Z,1.83
2022-10-24T08:55:44.261Z,1.40
2022-10-24T08:58:14.984Z,1.80
2022-10-24T09:00:42.439Z,1.27
2022-10-24T09:03:22.961Z,1.45
2022-10-24T09:05:54.708Z,1.70
2022-10-24T09:08:39.597Z,1.70
2022-10-24T09:11:06.545Z,1.60
2022-10-24T09:13:35.443Z,1.30
2022-10-24T09:16:01.937Z,1.73
2022-10-24T09:18:28.292Z,1.85
2022-10-24T09:20:54.774Z,1.70
2022-10-24T09:23:22.892Z,1.58
2022-10-24T09:25:50.674Z,1.55
2022-10-24T09:28:17.240Z,1.35
2022-10-24T09:30:43.704Z,1.52
2022-10-24T09:33:33.092Z,1.40
2022-10-24T09:36:01.005Z,1.42
2022-10-24T09:38:33.443Z,1.70
2022-10-24T09:41:04.530Z,1.60
2022-10-24T09:43:33.046Z,1.40
2022-10-24T09:46:05.303Z,1.70
2022-10-24T09:48:44.689Z,1.50
2022-10-24T09:51:17.562Z,1.85
2022-10-24T09:53:57.237Z,1.48
2022-10-24T09:56:32.142Z,1.20
2022-10-24T09:59:16.764Z,1.70
2022-10-24T10:01:44.333Z,1.48
2022-10-24T10:04:17.154Z,1.40
2022-10-24T10:06:48.215Z,1.50
2022-10-24T10:09:15.996Z,1.60
2022-10-24T10:11:49.382Z,1.65
2022-10-24T10:14:29.148Z,1.20
2022-10-24T10:17:18.196Z,1.80
2022-10-24T10:19:45.888Z,1.52
2022-10-24T10:22:25.802Z,1.98
2022-10-24T10:24:52.859Z,1.45
2022-10-24T10:27:36.455Z,1.60
2022-10-24T10:30:08.637Z,1.45
2022-10-24T10:32:52.620Z,1.45
2022-10-24T10:35:24.156Z,1.15
2022-10-24T10:38:08.959Z,1.30
2022-10-24T10:40:44.003Z,1.02
2022-10-24T10:43:16.423Z,1.40
2022-10-24T10:45:47.088Z,1.67
2022-10-24T10:48:19.146Z,1.33
2022-10-24T10:50:55.450Z,1.42
2022-10-24T10:53:40.722Z,1.50
2022-10-24T10:56:25.529Z,1.17
2022-10-24T10:59:06.785Z,1.42
2022-10-24T11:01:36.113Z,1.50
2022-10-24T11:04:13.116Z,1.50
2022-10-24T11:06:51.607Z,1.50
2022-10-24T11:09:33.015Z,1.42
2022-10-24T11:12:06.099Z,1.58
2022-10-24T11:14:32.358Z,1.65
2022-10-24T11:17:02.247Z,1.40
2022-10-24T11:19:32.162Z,2.65
2022-10-24T11:22:01.416Z,1.83
2022-10-24T11:24:28.180Z,1.70
2022-10-24T11:26:58.189Z,1.27
2022-10-24T11:29:36.387Z,1.83
2022-10-24T11:32:07.361Z,1.85
2022-10-24T11:34:46.821Z,1.30
2022-10-24T11:37:16.227Z,1.45
2022-10-24T11:39:45.808Z,1.80
2022-10-24T11:42:15.623Z,1.42
2022-10-24T11:44:54.074Z,1.58
2022-10-24T11:47:26.155Z,1.45
2022-10-24T11:49:58.141Z,1.42
2022-10-24T11:52:37.152Z,1.50
2022-10-24T11:55:18.118Z,1.05
2022-10-24T11:57:46.114Z,1.20
2022-10-24T12:00:21.027Z,1.38
2022-10-24T12:03:02.804Z,1.40
2022-10-24T12:05:52.211Z,1.48
2022-10-24T12:08:26.367Z,1.60
2022-10-24T12:11:05.520Z,1.40
2022-10-24T12:13:32.726Z,1.45
2022-10-24T12:16:05.148Z,1.40
2022-10-24T12:18:37.237Z,1.85
2022-10-24T12:21:05.946Z,1.42
2022-10-24T12:23:32.297Z,1.20
2022-10-24T12:26:05.737Z,1.58
2022-10-24T12:28:32.417Z,1.42
2022-10-24T12:31:22.212Z,1.55
2022-10-24T12:34:10.212Z,1.13
2022-10-24T12:36:55.051Z,1.40
2022-10-24T12:39:31.119Z,1.13
2022-10-24T12:41:58.803Z,1.42
2022-10-24T12:44:36.099Z,1.15
2022-10-24T12:47:17.348Z,1.55
2022-10-24T12:49:43.568Z,1.20
2022-10-24T12:52:28.426Z,1.55
2022-10-24T12:54:54.719Z,1.48
2022-10-24T12:57:22.745Z,1.75
2022-10-24T13:00:00.096Z,1.38
2022-10-24T13:02:32.177Z,1.50
2022-10-24T13:05:14.612Z,1.33
2022-10-24T13:07:48.640Z,1.40
2022-10-24T13:10:17.147Z,1.50
2022-10-24T13:12:59.654Z,2.08
2022-10-24T13:15:45.553Z,1.63
2022-10-24T13:18:33.807Z,1.50
2022-10-24T13:21:14.840Z,1.27
2022-10-24T13:23:42.733Z,1.65
2022-10-24T13:26:11.319Z,1.52
2022-10-24T13:28:39.409Z,1.65
2022-10-24T13:31:05.579Z,1.67
2022-10-24T13:33:37.634Z,1.42
2022-10-24T13:36:09.781Z,1.60
2022-10-24T13:39:02.267Z,1.45
2022-10-24T13:41:33.736Z,1.98
2022-10-24T13:46:36.813Z,1.08
2022-10-24T13:49:03.437Z,1.40
2022-10-24T13:51:41.074Z,1.38
2022-10-24T13:54:09.371Z,1.30
2022-10-24T13:56:37.664Z,1.63
2022-10-24T13:59:03.856Z,1.60
2022-10-24T14:01:30.489Z,1.38
2022-10-24T14:03:58.247Z,1.15
2022-10-24T14:06:25.581Z,1.38
2022-10-24T14:09:03.932Z,1.30
2022-10-24T14:11:32.966Z,1.42
2022-10-24T14:14:04.018Z,1.13
2022-10-24T14:16:34.328Z,1.35
2022-10-24T14:19:14.050Z,1.05
2022-10-24T14:21:46.007Z,1.50
2022-10-24T14:24:16.487Z,1.20
2022-10-24T14:26:45.319Z,1.33
2022-10-24T14:29:22.290Z,1.25
2022-10-24T14:31:54.458Z,1.10
2022-10-24T14:34:21.218Z,1.00
2022-10-24T14:36:47.679Z,1.20
2022-10-24T14:39:23.533Z,1.33
2022-10-24T14:41:51.073Z,2.03
2022-10-24T14:44:18.120Z,1.25
2022-10-24T14:46:45.871Z,1.20
2022-10-24T14:49:27.294Z,1.27
2022-10-24T14:52:16.424Z,1.48
2022-10-24T14:54:43.621Z,1.17
2022-10-24T14:57:17.451Z,1.10
2022-10-24T14:59:45.356Z,1.35
2022-10-24T15:02:11.519Z,1.25
2022-10-24T15:04:39.046Z,2.03
2022-10-24T15:07:23.536Z,1.70
2022-10-24T15:10:00.825Z,1.20
2022-10-24T15:12:47.419Z,1.55
2022-10-24T15:15:23.543Z,1.17
2022-10-24T15:17:50.810Z,1.45
2022-10-24T15:20:18.392Z,1.80
2022-10-24T15:22:51.872Z,1.58
2022-10-24T15:25:30.793Z,1.00
2022-10-24T15:27:59.347Z,1.27
2022-10-24T15:30:36.787Z,1.45
2022-10-24T15:33:04.244Z,1.58
2022-10-24T15:35:33.785Z,1.23
2022-10-24T15:38:13.843Z,1.50
2022-10-24T15:40:42.338Z,1.55
2022-10-24T15:43:11.534Z,1.35
2022-10-24T15:45:37.710Z,1.40
2022-10-24T15:48:03.959Z,1.55
2022-10-24T15:50:30.184Z,1.50
2022-10-24T15:52:57.369Z,1.98
2022-10-24T15:55:27.880Z,1.73
2022-10-24T15:57:54.431Z,1.52
2022-10-24T16:00:22.114Z,1.45
2022-10-24T16:02:52.683Z,1.48
2022-10-24T16:05:20.921Z,1.60
2022-10-24T16:07:47.789Z,1.73
2022-10-24T16:10:14.904Z,1.52
2022-10-24T16:12:41.980Z,1.38
2022-10-24T16:15:17.315Z,1.80
2022-10-24T16:17:43.915Z,1.60
2022-10-24T16:20:10.359Z,1.88
2022-10-24T16:22:36.603Z,2.10
2022-10-24T16:25:02.871Z,1.67
2022-10-24T16:27:29.065Z,2.50
2022-10-24T16:29:55.496Z,1.50
2022-10-24T16:32:21.768Z,1.58
2022-10-24T16:34:50.048Z,1.90
2022-10-24T16:37:16.777Z,1.70
2022-10-24T16:39:42.998Z,1.85
2022-10-24T16:42:09.476Z,1.85
2022-10-24T16:44:37.012Z,1.67
2022-10-24T16:47:03.869Z,2.20
2022-10-24T16:49:31.299Z,1.90
2022-10-24T16:51:58.028Z,1.95
2022-10-24T16:54:24.280Z,2.10
2022-10-24T16:56:53.901Z,1.73
2022-10-24T16:59:20.525Z,2.00
2022-10-24T17:01:46.908Z,2.35
2022-10-24T17:04:13.270Z,1.85
2022-10-24T17:06:39.452Z,2.03
2022-10-24T17:09:05.682Z,2.80
2022-10-24T17:11:44.786Z,2.67
2022-10-24T17:14:13.848Z,2.63
2022-10-24T17:16:40.750Z,2.15
2022-10-24T17:19:15.771Z,2.60
2022-10-24T17:21:43.433Z,2.58
2022-10-24T17:24:10.789Z,2.20
2022-10-24T17:26:37.058Z,2.10
2022-10-24T17:29:03.738Z,2.55
2022-10-24T17:31:29.983Z,1.80
2022-10-24T17:33:56.269Z,2.45
2022-10-24T17:36:26.282Z,2.30
2022-10-24T17:38:59.651Z,1.65
2022-10-24T17:41:27.034Z,2.00
2022-10-24T17:43:53.553Z,2.10
2022-10-24T17:46:20.379Z,2.38
2022-10-24T17:48:46.568Z,2.67
2022-10-24T17:51:15.624Z,2.13
2022-10-24T17:53:41.815Z,2.67
2022-10-24T17:56:08.638Z,2.50
2022-10-24T17:58:35.262Z,2.65
2022-10-24T18:01:01.656Z,2.60
2022-10-24T18:03:28.698Z,2.55
2022-10-24T18:05:58.658Z,2.25
2022-10-24T18:08:25.135Z,2.13
2022-10-24T18:10:51.589Z,1.77
2022-10-24T18:13:17.835Z,2.47
2022-10-24T18:15:44.237Z,2.60
2022-10-24T18:18:10.896Z,2.00
2022-10-24T18:20:37.180Z,2.38
2022-10-24T18:23:03.700Z,1.70
2022-10-24T18:25:30.083Z,2.42
2022-10-24T18:27:56.991Z,2.75
2022-10-24T18:30:23.378Z,2.25
2022-10-24T18:32:49.902Z,2.30
2022-10-24T18:35:16.680Z,2.70
2022-10-24T18:37:43.015Z,2.17
2022-10-24T18:40:09.668Z,2.22
2022-10-24T18:42:49.059Z,2.03
2022-10-24T18:45:20.609Z,2.78
2022-10-24T18:47:47.706Z,2.25
2022-10-24T18:50:14.791Z,2.20
2022-10-24T18:52:54.275Z,2.38
2022-10-24T18:55:21.764Z,2.55
2022-10-24T18:57:49.107Z,2.30
2022-10-24T19:00:17.295Z,2.60
2022-10-24T19:02:47.946Z,1.98
2022-10-24T19:05:17.295Z,2.60
2022-10-24T19:07:44.917Z,2.03
2022-10-24T19:10:15.784Z,2.00
2022-10-24T19:12:41.982Z,2.17
2022-10-24T19:15:08.495Z,1.92
2022-10-24T19:17:34.912Z,2.30
2022-10-24T19:20:01.097Z,2.80
2022-10-24T19:22:29.792Z,2.22
2022-10-24T19:24:57.935Z,2.28
2022-10-24T19:27:24.720Z,2.33
2022-10-24T19:29:50.949Z,1.88
2022-10-24T19:32:17.334Z,1.95
2022-10-24T19:34:43.565Z,2.22
2022-10-24T19:37:11.475Z,2.10
2022-10-24T19:39:37.709Z,1.95
2022-10-24T19:42:04.068Z,2.47
2022-10-24T19:44:30.311Z,2.20
2022-10-24T19:46:56.502Z,2.42
2022-10-24T19:49:22.692Z,2.30
2022-10-24T19:51:50.233Z,2.15
2022-10-24T19:54:16.418Z,2.17
2022-10-24T19:56:42.763Z,2.13
2022-10-24T19:59:12.091Z,2.38
2022-10-24T20:01:38.615Z,2.38
2022-10-24T20:04:05.090Z,2.45
2022-10-24T20:06:31.487Z,1.90
2022-10-24T20:08:57.722Z,2.17
2022-10-24T20:11:23.965Z,2.30
2022-10-24T20:13:50.421Z,2.33
2022-10-24T20:16:16.899Z,2.53
2022-10-24T20:18:43.434Z,2.40
2022-10-24T20:21:10.920Z,2.33
2022-10-24T20:23:37.736Z,1.80
2022-10-24T20:26:05.507Z,2.08
2022-10-24T20:28:35.937Z,2.60
2022-10-24T20:31:02.458Z,2.20
2022-10-24T20:33:28.803Z,2.53
2022-10-24T20:35:57.791Z,2.67
2022-10-24T20:38:24.059Z,2.85
2022-10-24T20:40:50.241Z,1.95
2022-10-24T20:43:17.073Z,2.50
2022-10-24T20:45:43.293Z,2.55
2022-10-24T20:48:09.526Z,2.42
2022-10-24T20:50:35.753Z,2.55
2022-10-24T20:53:02.466Z,2.47
2022-10-24T20:55:39.324Z,2.60
2022-10-24T20:58:11.250Z,2.00
2022-10-24T21:00:37.494Z,2.60
2022-10-24T21:03:03.976Z,2.05
2022-10-24T21:05:30.190Z,2.33
2022-10-24T21:07:56.395Z,2.72
2022-10-24T21:10:23.050Z,2.95
2022-10-24T21:12:49.602Z,2.13
2022-10-24T21:15:16.018Z,2.67
2022-10-24T21:17:42.190Z,2.22
2022-10-24T21:20:08.604Z,2.25
2022-10-24T21:22:34.803Z,2.10
2022-10-24T21:25:01.094Z,2.15
2022-10-24T21:27:27.290Z,2.17
2022-10-24T21:29:53.471Z,2.30
2022-10-24T21:32:19.638Z,2.08
2022-10-24T21:34:45.837Z,2.50
2022-10-24T21:37:12.051Z,2.25
2022-10-24T21:39:38.250Z,1.80
2022-10-24T21:42:05.381Z,3.00
2022-10-24T21:44:31.625Z,2.13
2022-10-24T21:46:58.001Z,2.13
2022-10-24T21:49:25.538Z,2.28
2022-10-24T21:51:51.808Z,2.85
2022-10-24T21:54:22.419Z,1.50
2022-10-24T21:56:48.709Z,1.88
2022-10-24T21:59:16.190Z,2.13
2022-10-24T22:01:43.275Z,2.08
2022-10-24T22:04:10.144Z,2.50
2022-10-24T22:06:36.858Z,2.00
2022-10-24T22:09:04.334Z,2.05
2022-10-24T22:11:31.613Z,1.77
2022-10-24T22:13:58.173Z,1.90
2022-10-24T22:16:26.083Z,2.00
2022-10-24T22:18:52.727Z,1.75
2022-10-24T22:21:21.788Z,1.55
2022-10-24T22:23:47.982Z,1.60
2022-10-24T22:26:14.177Z,1.60
2022-10-24T22:28:41.020Z,2.50
2022-10-24T22:31:07.488Z,2.05
2022-10-24T22:33:35.189Z,1.90
2022-10-24T22:36:12.015Z,1.85
2022-10-24T22:38:38.328Z,1.70
2022-10-24T22:41:04.735Z,1.58
2022-10-24T22:43:30.989Z,1.77
2022-10-24T22:46:03.320Z,1.52
2022-10-24T22:48:31.088Z,1.70
2022-10-24T22:50:57.696Z,1.85
2022-10-24T22:53:25.769Z,1.38
2022-10-24T22:56:02.924Z,1.73
2022-10-24T22:58:29.247Z,2.05
2022-10-24T23:01:00.592Z,1.95
2022-10-24T23:03:36.094Z,2.15
2022-10-24T23:06:07.024Z,2.15
2022-10-24T23:08:43.832Z,2.45
2022-10-24T23:11:11.802Z,1.80
2022-10-24T23:13:38.349Z,2.00
2022-10-24T23:16:13.040Z,1.92
2022-10-24T23:18:39.299Z,1.73
2022-10-24T23:21:15.934Z,2.15
2022-10-24T23:23:42.431Z,1.70
2022-10-24T23:26:13.200Z,1.92
2022-10-24T23:29:00.025Z,1.60
2022-10-24T23:31:26.373Z,1.83
2022-10-24T23:33:52.714Z,1.88
2022-10-24T23:36:23.947Z,2.08
2022-10-24T23:38:53.150Z,1.98
2022-10-24T23:41:19.545Z,1.30
2022-10-24T23:43:45.905Z,1.30
2022-10-24T23:46:24.065Z,2.00
2022-10-24T23:48:58.240Z,1.35
2022-10-24T23:51:30.849Z,1.40
2022-10-24T23:53:57.215Z,1.40
2022-10-24T23:56:24.633Z,1.13
2022-10-24T23:58:51.251Z,1.67
